createdAt,value
2022-09-18T00:01:50.497Z,99814.50
2022-09-18T00:06:44.974Z,99816.97
2022-09-18T00:11:40.008Z,99814.84
2022-09-18T00:16:31.856Z,99824.91
2022-09-18T00:21:25.322Z,99823.88
2022-09-18T00:26:18.539Z,99817.56
2022-09-18T00:31:22.107Z,99817.13
2022-09-18T00:36:16.507Z,99830.13
2022-09-18T00:41:17.849Z,99823.00
2022-09-18T00:46:41.903Z,99822.78
2022-09-18T00:51:36.198Z,99821.97
2022-09-18T00:56:28.338Z,99812.38
2022-09-18T01:01:20.066Z,99805.28
2022-09-18T01:06:22.985Z,99800.53
2022-09-18T01:11:56.284Z,99800.97
2022-09-18T01:16:57.704Z,99793.94
2022-09-18T01:22:18.782Z,99794.84
2022-09-18T01:27:18.658Z,99797.41
2022-09-18T01:32:19.476Z,99787.59
2022-09-18T01:37:36.829Z,99787.81
2022-09-18T01:42:31.120Z,99772.38
2022-09-18T01:47:28.998Z,99778.03
2022-09-18T01:52:26.801Z,99780.13
2022-09-18T01:57:25.590Z,99773.50
2022-09-18T02:02:49.876Z,99765.94
2022-09-18T02:07:52.014Z,99767.63
2022-09-18T02:12:45.189Z,99766.41
2022-09-18T02:17:53.440Z,99759.50
2022-09-18T02:22:46.711Z,99765.59
2022-09-18T02:27:40.373Z,99765.63
2022-09-18T02:32:32.477Z,99761.50
2022-09-18T02:37:28.940Z,99758.16
2022-09-18T02:42:27.219Z,99760.03
2022-09-18T02:47:46.284Z,99757.56
2022-09-18T02:52:50.101Z,99751.97
2022-09-18T02:57:49.493Z,99749.91
2022-09-18T03:02:41.236Z,99744.94
2022-09-18T03:07:33.009Z,99743.94
2022-09-18T03:12:24.703Z,99746.06
2022-09-18T03:17:16.509Z,99751.31
2022-09-18T03:22:08.197Z,99748.06
2022-09-18T03:26:59.867Z,99743.28
2022-09-18T03:31:51.624Z,99732.25
2022-09-18T03:36:43.272Z,99741.28
2022-09-18T03:41:34.944Z,99742.16
2022-09-18T03:46:26.565Z,99744.50
2022-09-18T03:51:19.688Z,99739.56
2022-09-18T03:56:12.161Z,99743.97
2022-09-18T04:01:03.981Z,99746.53
2022-09-18T04:05:55.617Z,99746.16
2022-09-18T04:10:48.322Z,99742.84
2022-09-18T04:15:40.048Z,99747.47
2022-09-18T04:20:31.790Z,99757.72
2022-09-18T04:25:23.500Z,99746.66
2022-09-18T04:30:15.178Z,99758.59
2022-09-18T04:35:07.522Z,99756.47
2022-09-18T04:39:59.165Z,99759.19
2022-09-18T04:44:51.021Z,99760.00
2022-09-18T04:49:42.669Z,99756.88
2022-09-18T04:54:34.610Z,99757.50
2022-09-18T04:59:26.235Z,99759.34
2022-09-18T05:04:17.837Z,99758.53
2022-09-18T05:09:09.559Z,99759.34
2022-09-18T05:14:01.253Z,99777.69
2022-09-18T05:18:53.214Z,99771.84
2022-09-18T05:23:45.433Z,99772.25
2022-09-18T05:28:37.582Z,99759.69
2022-09-18T05:33:29.532Z,99760.69
2022-09-18T05:38:21.178Z,99771.13
2022-09-18T05:43:12.825Z,99760.63
2022-09-18T05:48:06.438Z,99766.91
2022-09-18T05:52:58.015Z,99764.00
2022-09-18T05:57:53.857Z,99766.25
2022-09-18T06:02:55.952Z,99773.31
2022-09-18T06:07:47.814Z,99776.84
2022-09-18T06:12:39.519Z,99781.22
2022-09-18T06:17:31.119Z,99775.81
2022-09-18T06:22:22.855Z,99781.22
2022-09-18T06:27:14.481Z,99793.28
2022-09-18T06:32:06.239Z,99792.47
2022-09-18T06:36:57.874Z,99788.72
2022-09-18T06:41:49.872Z,99785.38
2022-09-18T06:46:41.655Z,99783.72
2022-09-18T06:51:33.250Z,99779.06
2022-09-18T06:56:24.977Z,99782.56
2022-09-18T07:01:16.622Z,99788.78
2022-09-18T07:06:10.341Z,99789.16
2022-09-18T07:11:02.441Z,99786.66
2022-09-18T07:15:54.168Z,99791.88
2022-09-18T07:20:45.870Z,99796.59
2022-09-18T07:25:37.533Z,99801.09
2022-09-18T07:30:29.190Z,99798.78
2022-09-18T07:35:20.934Z,99795.75
2022-09-18T07:40:12.714Z,99788.97
2022-09-18T07:45:06.005Z,99793.03
2022-09-18T07:49:57.660Z,99794.19
2022-09-18T07:54:49.340Z,99791.13
2022-09-18T07:59:40.994Z,99796.50
2022-09-18T08:04:32.665Z,99789.09
2022-09-18T08:09:24.317Z,99785.44
2022-09-18T08:14:16.637Z,99779.31
2022-09-18T08:19:08.732Z,99798.91
2022-09-18T08:24:00.614Z,99798.56
2022-09-18T08:28:52.529Z,99795.38
2022-09-18T08:33:44.264Z,99797.19
2022-09-18T08:38:36.218Z,99793.53
2022-09-18T08:43:47.541Z,99795.09
2022-09-18T08:48:45.552Z,99804.38
2022-09-18T08:53:40.444Z,99801.81
2022-09-18T08:58:49.180Z,99800.09
2022-09-18T09:03:53.214Z,99798.09
2022-09-18T09:09:12.537Z,99810.88
2022-09-18T09:14:55.483Z,99802.41
2022-09-18T09:20:21.449Z,99808.81
2022-09-18T09:25:50.782Z,99803.56
2022-09-18T09:30:48.945Z,99813.41
2022-09-18T09:35:45.498Z,99813.31
2022-09-18T09:40:45.485Z,99816.00
2022-09-18T09:45:49.754Z,99798.16
2022-09-18T09:51:12.009Z,99799.84
2022-09-18T09:56:09.752Z,99799.06
2022-09-18T10:01:10.697Z,99796.97
2022-09-18T10:06:15.590Z,99792.66
2022-09-18T10:11:11.388Z,99804.47
2022-09-18T10:16:38.979Z,99795.97
2022-09-18T10:21:35.209Z,99798.16
2022-09-18T10:26:35.236Z,99797.41
2022-09-18T10:31:49.375Z,99805.72
2022-09-18T10:36:43.371Z,99793.69
2022-09-18T10:41:38.913Z,99807.69
2022-09-18T10:46:33.745Z,99795.88
2022-09-18T10:51:26.886Z,99799.44
2022-09-18T10:56:20.485Z,99805.75
2022-09-18T11:01:14.003Z,99814.66
2022-09-18T11:06:15.704Z,99822.69
2022-09-18T11:11:11.319Z,99823.75
2022-09-18T11:16:03.829Z,99812.75
2022-09-18T11:20:57.894Z,99812.53
2022-09-18T11:25:50.064Z,99822.38
2022-09-18T11:30:41.794Z,99820.72
2022-09-18T11:35:33.662Z,99820.44
2022-09-18T11:40:30.860Z,99832.53
2022-09-18T11:45:47.392Z,99823.91
2022-09-18T11:50:39.579Z,99817.59
2022-09-18T11:55:44.842Z,99822.34
2022-09-18T12:00:50.895Z,99816.25
2022-09-18T12:05:51.592Z,99817.94
2022-09-18T12:10:59.190Z,99819.13
2022-09-18T12:15:59.150Z,99813.53
2022-09-18T12:20:57.882Z,99827.72
2022-09-18T12:26:17.004Z,99813.53
2022-09-18T12:31:19.659Z,99816.13
2022-09-18T12:36:29.583Z,99804.09
2022-09-18T12:41:32.925Z,99799.97
2022-09-18T12:46:59.862Z,99806.03
2022-09-18T12:51:54.925Z,99810.72
2022-09-18T12:56:55.709Z,99811.84
2022-09-18T13:02:06.238Z,99817.84
2022-09-18T13:07:21.910Z,99811.13
2022-09-18T13:12:20.934Z,99813.78
2022-09-18T13:17:18.584Z,99820.28
2022-09-18T13:22:15.922Z,99821.75
2022-09-18T13:27:13.259Z,99821.00
2022-09-18T13:32:05.042Z,99817.59
2022-09-18T13:37:06.423Z,99819.97
2022-09-18T13:41:59.803Z,99810.31
2022-09-18T13:46:55.115Z,99821.25
2022-09-18T13:51:47.305Z,99814.13
2022-09-18T13:57:04.065Z,99819.34
2022-09-18T14:01:55.947Z,99822.31
2022-09-18T14:06:47.748Z,99833.19
2022-09-18T14:11:39.393Z,99830.88
2022-09-18T14:16:38.862Z,99829.09
2022-09-18T14:21:40.292Z,99824.75
2022-09-18T14:26:38.524Z,99816.56
2022-09-18T14:31:38.087Z,99821.25
2022-09-18T14:36:47.638Z,99836.53
2022-09-18T14:41:39.316Z,99835.97
2022-09-18T14:46:31.880Z,99823.34
2022-09-18T14:51:26.954Z,99822.66
2022-09-18T14:56:27.310Z,99823.50
2022-09-18T15:01:26.835Z,99815.03
2022-09-18T15:06:24.278Z,99811.88
2022-09-18T15:11:18.279Z,99817.00
2022-09-18T15:16:39.389Z,99828.66
2022-09-18T15:21:33.828Z,99830.88
2022-09-18T15:26:32.769Z,99826.81
2022-09-18T15:31:29.908Z,99830.50
2022-09-18T15:36:31.627Z,99840.72
2022-09-18T15:41:32.342Z,99833.94
2022-09-18T15:46:29.626Z,99834.19
2022-09-18T15:51:36.061Z,99834.75
2022-09-18T15:56:28.579Z,99833.94
2022-09-18T16:01:24.196Z,99848.19
2022-09-18T16:06:26.496Z,99840.03
2022-09-18T16:11:44.728Z,99838.41
2022-09-18T16:16:36.460Z,99847.94
2022-09-18T16:21:30.417Z,99847.44
2022-09-18T16:26:34.467Z,99844.13
2022-09-18T16:31:28.702Z,99838.81
2022-09-18T16:36:39.032Z,99840.97
2022-09-18T16:41:31.565Z,99838.44
2022-09-18T16:46:31.377Z,99838.84
2022-09-18T16:51:23.166Z,99841.53
2022-09-18T16:56:20.231Z,99839.78
2022-09-18T17:01:11.959Z,99840.84
2022-09-18T17:06:03.772Z,99849.66
2022-09-18T17:10:55.443Z,99850.97
2022-09-18T17:15:47.245Z,99848.75
2022-09-18T17:20:38.920Z,99852.16
2022-09-18T17:25:30.636Z,99843.88
2022-09-18T17:30:22.929Z,99856.59
2022-09-18T17:35:16.289Z,99857.28
2022-09-18T17:40:09.517Z,99861.81
2022-09-18T17:45:01.265Z,99857.91
2022-09-18T17:49:52.930Z,99867.94
2022-09-18T17:54:44.636Z,99875.47
2022-09-18T17:59:36.838Z,99874.78
2022-09-18T18:04:31.117Z,99879.81
2022-09-18T18:09:22.944Z,99883.78
2022-09-18T18:14:14.899Z,99892.00
2022-09-18T18:19:11.939Z,99891.56
2022-09-18T18:24:11.032Z,99889.78
2022-09-18T18:29:02.883Z,99895.41
2022-09-18T18:33:55.751Z,99893.78
2022-09-18T18:38:50.493Z,99901.75
2022-09-18T18:43:42.620Z,99908.13
2022-09-18T18:48:36.865Z,99911.09
2022-09-18T18:53:29.159Z,99914.66
2022-09-18T18:58:20.751Z,99915.72
2022-09-18T19:03:12.411Z,99910.13
2022-09-18T19:08:04.337Z,99926.41
2022-09-18T19:12:57.323Z,99930.09
2022-09-18T19:17:50.297Z,99928.06
2022-09-18T19:22:42.033Z,99931.16
2022-09-18T19:27:33.587Z,99937.91
2022-09-18T19:32:25.685Z,99945.50
2022-09-18T19:37:18.419Z,99945.97
2022-09-18T19:42:14.938Z,99954.16
2022-09-18T19:47:19.144Z,99955.00
2022-09-18T19:52:20.475Z,99953.56
2022-09-18T19:57:12.452Z,99959.88
2022-09-18T20:02:04.260Z,99955.00
2022-09-18T20:06:55.929Z,99962.69
2022-09-18T20:11:48.470Z,99955.56
2022-09-18T20:16:40.159Z,99970.06
2022-09-18T20:21:32.176Z,99969.59
2022-09-18T20:26:25.010Z,99971.47
2022-09-18T20:31:17.456Z,99966.00
2022-09-18T20:36:11.528Z,99964.84
2022-09-18T20:41:15.187Z,99968.63
2022-09-18T20:46:11.524Z,99974.91
2022-09-18T20:51:09.144Z,99971.81
2022-09-18T20:56:02.991Z,99975.25
2022-09-18T21:00:54.621Z,99963.63
2022-09-18T21:05:46.485Z,99964.78
2022-09-18T21:10:46.720Z,99970.94
2022-09-18T21:15:38.923Z,99971.50
2022-09-18T21:20:31.561Z,99966.16
2022-09-18T21:25:24.725Z,99975.28
2022-09-18T21:30:16.395Z,99972.41
2022-09-18T21:35:08.649Z,99967.88
2022-09-18T21:40:00.470Z,99963.72
2022-09-18T21:44:52.125Z,99957.91
2022-09-18T21:49:44.048Z,99968.19
2022-09-18T21:54:35.737Z,99973.41
2022-09-18T21:59:30.679Z,99975.91
2022-09-18T22:04:29.232Z,99982.81
2022-09-18T22:09:33.282Z,99988.50
2022-09-18T22:14:32.170Z,99985.59
2022-09-18T22:19:24.183Z,99976.25
2022-09-18T22:24:19.467Z,99970.34
2022-09-18T22:29:20.172Z,99971.97
2022-09-18T22:34:12.991Z,99976.38
2022-09-18T22:39:04.792Z,99980.78
2022-09-18T22:43:57.873Z,99988.56
2022-09-18T22:48:49.840Z,99991.50
2022-09-18T22:53:47.124Z,99998.19
2022-09-18T22:58:41.391Z,99999.84
2022-09-18T23:03:33.917Z,99987.88
2022-09-18T23:08:25.567Z,99990.38
2022-09-18T23:13:17.470Z,99996.97
2022-09-18T23:18:09.136Z,100000.31
2022-09-18T23:23:00.822Z,100006.13
2022-09-18T23:27:53.103Z,100002.13
2022-09-18T23:32:48.523Z,100001.50
2022-09-18T23:37:40.140Z,100003.25
2022-09-18T23:42:31.848Z,100000.16
2022-09-18T23:47:23.635Z,100004.78
2022-09-18T23:52:15.380Z,100000.78
2022-09-18T23:57:07.097Z,100004.53
